createdAt,value
2022-10-09T00:00:47.969Z,6.38
2022-10-09T00:03:17.293Z,9.77
2022-10-09T00:05:45.963Z,8.43
2022-10-09T00:08:15.288Z,7.72
2022-10-09T00:10:43.918Z,8.47
2022-10-09T00:13:11.933Z,7.30
2022-10-09T00:15:40.586Z,6.57
2022-10-09T00:18:09.252Z,6.97
2022-10-09T00:20:38.538Z,7.70
2022-10-09T00:23:07.032Z,7.00
2022-10-09T00:25:37.222Z,7.88
2022-10-09T00:28:05.867Z,8.15
2022-10-09T00:30:34.193Z,8.32
2022-10-09T00:33:02.176Z,8.35
2022-10-09T00:35:30.116Z,7.75
2022-10-09T00:37:58.107Z,8.13
2022-10-09T00:40:26.345Z,6.75
2022-10-09T00:42:59.504Z,6.72
2022-10-09T00:45:28.494Z,5.75
2022-10-09T00:48:01.456Z,5.75
2022-10-09T00:50:39.815Z,5.00
2022-10-09T00:53:09.039Z,5.57
2022-10-09T00:55:37.999Z,5.50
2022-10-09T00:58:07.659Z,5.35
2022-10-09T01:00:35.536Z,4.78
2022-10-09T01:03:03.355Z,4.72
2022-10-09T01:05:43.915Z,4.65
2022-10-09T01:08:20.762Z,4.90
2022-10-09T01:10:55.379Z,5.10
2022-10-09T01:13:34.271Z,6.85
2022-10-09T01:16:08.622Z,6.78
2022-10-09T01:18:42.096Z,6.75
2022-10-09T01:21:16.081Z,6.07
2022-10-09T01:24:10.486Z,5.20
2022-10-09T01:26:57.220Z,5.18
2022-10-09T01:29:28.282Z,4.72
2022-10-09T01:31:58.500Z,5.10
2022-10-09T01:36:58.009Z,4.72
2022-10-09T01:39:27.715Z,5.28
2022-10-09T01:41:58.375Z,5.88
2022-10-09T01:44:28.323Z,6.07
2022-10-09T01:46:56.818Z,6.38
2022-10-09T01:49:41.605Z,5.53
2022-10-09T01:52:20.245Z,5.00
2022-10-09T01:55:02.478Z,4.25
2022-10-09T01:57:38.115Z,5.10
2022-10-09T02:00:10.961Z,4.97
2022-10-09T02:02:43.260Z,5.03
2022-10-09T02:05:14.227Z,5.05
2022-10-09T02:07:42.352Z,4.78
2022-10-09T02:10:11.297Z,6.05
2022-10-09T02:12:46.977Z,5.63
2022-10-09T02:15:16.213Z,5.18
2022-10-09T02:17:48.665Z,5.18
2022-10-09T02:20:22.612Z,4.97
2022-10-09T02:22:51.170Z,5.90
2022-10-09T02:25:19.835Z,5.68
2022-10-09T02:27:49.342Z,5.30
2022-10-09T02:30:17.437Z,6.15
2022-10-09T02:32:45.484Z,4.80
2022-10-09T02:35:13.683Z,4.43
2022-10-09T02:37:41.569Z,4.78
2022-10-09T02:40:10.940Z,4.63
2022-10-09T02:42:38.996Z,4.85
2022-10-09T02:45:10.141Z,4.80
2022-10-09T02:47:38.032Z,5.07
2022-10-09T02:50:06.797Z,4.30
2022-10-09T02:52:34.692Z,4.40
2022-10-09T02:55:02.602Z,4.40
2022-10-09T02:57:30.453Z,4.53
2022-10-09T02:59:58.286Z,4.40
2022-10-09T03:02:27.773Z,4.40
2022-10-09T03:04:55.684Z,4.75
2022-10-09T03:07:23.506Z,5.20
2022-10-09T03:09:51.308Z,4.57
2022-10-09T03:12:21.280Z,4.25
2022-10-09T03:14:52.017Z,4.10
2022-10-09T03:17:19.905Z,4.03
2022-10-09T03:19:49.142Z,4.50
2022-10-09T03:22:17.019Z,4.22
2022-10-09T03:24:44.828Z,4.13
2022-10-09T03:27:13.046Z,4.30
2022-10-09T03:29:40.836Z,4.00
2022-10-09T03:32:08.733Z,4.80
2022-10-09T03:34:36.691Z,4.20
2022-10-09T03:37:05.987Z,3.95
2022-10-09T03:39:33.895Z,4.28
2022-10-09T03:42:01.888Z,4.63
2022-10-09T03:44:29.709Z,5.07
2022-10-09T03:46:57.672Z,4.97
2022-10-09T03:49:25.558Z,4.65
2022-10-09T03:51:53.414Z,4.50
2022-10-09T03:54:22.601Z,4.63
2022-10-09T03:56:50.408Z,4.22
2022-10-09T03:59:18.194Z,4.28
2022-10-09T04:01:46.198Z,4.82
2022-10-09T04:04:14.090Z,4.43
2022-10-09T04:06:42.098Z,4.45
2022-10-09T04:09:10.046Z,4.97
2022-10-09T04:11:39.360Z,5.15
2022-10-09T04:14:07.539Z,5.05
2022-10-09T04:16:35.470Z,4.22
2022-10-09T04:19:03.436Z,4.43
2022-10-09T04:21:32.633Z,4.72
2022-10-09T04:24:00.614Z,6.28
2022-10-09T04:26:28.463Z,8.05
2022-10-09T04:28:58.255Z,13.15
2022-10-09T04:31:26.238Z,11.90
2022-10-09T04:33:55.952Z,13.52
2022-10-09T04:36:24.584Z,12.00
2022-10-09T04:38:52.707Z,11.07
2022-10-09T04:41:20.526Z,11.90
2022-10-09T04:43:48.458Z,11.88
2022-10-09T04:46:17.902Z,11.35
2022-10-09T04:48:47.511Z,8.32
2022-10-09T04:51:16.429Z,10.15
2022-10-09T04:53:44.942Z,10.25
2022-10-09T04:56:14.797Z,10.23
2022-10-09T04:58:43.375Z,10.35
2022-10-09T05:01:14.738Z,10.05
2022-10-09T05:03:44.042Z,9.73
2022-10-09T05:06:13.756Z,9.57
2022-10-09T05:08:42.378Z,10.18
2022-10-09T05:11:12.747Z,9.85
2022-10-09T05:16:12.018Z,11.52
2022-10-09T05:18:44.210Z,12.07
2022-10-09T05:21:12.500Z,13.15
2022-10-09T05:23:40.989Z,12.43
2022-10-09T05:26:12.012Z,10.63
2022-10-09T05:28:40.143Z,10.68
2022-10-09T05:31:09.997Z,9.38
2022-10-09T05:33:37.935Z,10.25
2022-10-09T05:36:07.615Z,15.50
2022-10-09T05:38:35.478Z,13.82
2022-10-09T05:41:05.193Z,12.93
2022-10-09T05:43:34.601Z,10.38
2022-10-09T05:46:07.723Z,11.30
2022-10-09T05:48:35.976Z,14.30
2022-10-09T05:51:13.703Z,12.60
2022-10-09T05:53:43.008Z,12.93
2022-10-09T05:56:12.893Z,12.20
2022-10-09T05:58:40.713Z,12.10
2022-10-09T06:01:09.413Z,11.65
2022-10-09T06:03:38.015Z,11.27
2022-10-09T06:06:07.527Z,10.75
2022-10-09T06:08:38.198Z,8.52
2022-10-09T06:11:11.080Z,10.93
2022-10-09T06:13:39.020Z,9.57
2022-10-09T06:16:07.289Z,9.07
2022-10-09T06:18:35.573Z,13.38
2022-10-09T06:21:03.891Z,15.05
2022-10-09T06:23:32.659Z,11.27
2022-10-09T06:26:04.488Z,9.38
2022-10-09T06:28:34.104Z,8.38
2022-10-09T06:31:03.631Z,9.05
2022-10-09T06:33:33.021Z,8.13
2022-10-09T06:36:09.748Z,7.97
2022-10-09T06:38:39.378Z,8.45
2022-10-09T06:41:10.155Z,8.35
2022-10-09T06:43:38.213Z,8.43
2022-10-09T06:46:08.371Z,12.85
2022-10-09T06:48:37.701Z,8.55
2022-10-09T06:51:07.782Z,9.20
2022-10-09T06:53:36.140Z,10.82
2022-10-09T06:56:04.670Z,9.13
2022-10-09T06:58:34.207Z,10.50
2022-10-09T07:01:07.359Z,10.35
2022-10-09T07:03:35.321Z,8.77
2022-10-09T07:06:10.619Z,8.52
2022-10-09T07:08:39.600Z,8.70
2022-10-09T07:11:11.895Z,8.63
2022-10-09T07:13:41.324Z,8.55
2022-10-09T07:16:09.853Z,8.03
2022-10-09T07:18:38.736Z,8.38
2022-10-09T07:21:09.228Z,10.02
2022-10-09T07:23:37.996Z,9.95
2022-10-09T07:26:11.810Z,9.77
2022-10-09T07:28:42.343Z,14.65
2022-10-09T07:31:11.610Z,14.07
2022-10-09T07:33:41.548Z,15.77
2022-10-09T07:36:11.431Z,16.75
2022-10-09T07:38:39.280Z,17.90
2022-10-09T07:41:08.840Z,18.13
2022-10-09T07:43:37.990Z,20.63
2022-10-09T07:46:09.338Z,20.35
2022-10-09T07:48:37.315Z,18.60
2022-10-09T07:51:10.203Z,18.42
2022-10-09T07:53:38.976Z,18.23
2022-10-09T07:56:07.770Z,19.80
2022-10-09T07:58:35.918Z,15.45
2022-10-09T08:01:08.837Z,16.73
2022-10-09T08:03:38.002Z,13.68
2022-10-09T08:06:06.544Z,13.25
2022-10-09T08:08:34.681Z,11.98
2022-10-09T08:11:09.576Z,10.95
2022-10-09T08:13:37.484Z,11.68
2022-10-09T08:16:05.594Z,11.95
2022-10-09T08:18:35.483Z,11.13
2022-10-09T08:21:05.337Z,10.23
2022-10-09T08:23:33.229Z,10.93
2022-10-09T08:26:01.073Z,9.85
2022-10-09T08:28:29.146Z,11.20
2022-10-09T08:30:57.102Z,10.30
2022-10-09T08:33:25.978Z,9.88
2022-10-09T08:35:55.140Z,8.93
2022-10-09T08:38:45.301Z,9.15
2022-10-09T08:41:14.611Z,9.00
2022-10-09T08:43:46.619Z,8.90
2022-10-09T08:46:21.261Z,9.60
2022-10-09T08:48:51.857Z,8.82
2022-10-09T08:53:59.998Z,8.25
2022-10-09T08:56:30.356Z,6.90
2022-10-09T09:01:33.900Z,6.38
2022-10-09T09:04:31.943Z,6.82
2022-10-09T09:07:12.234Z,6.28
2022-10-09T09:09:49.721Z,5.55
2022-10-09T09:12:26.647Z,5.47
2022-10-09T09:15:06.318Z,5.43
2022-10-09T09:17:43.393Z,4.85
2022-10-09T09:20:16.750Z,4.85
2022-10-09T09:22:51.256Z,4.55
2022-10-09T09:25:22.826Z,4.05
2022-10-09T09:27:53.104Z,3.20
2022-10-09T09:33:00.590Z,3.90
2022-10-09T09:35:38.879Z,3.50
2022-10-09T09:38:08.662Z,2.88
2022-10-09T09:40:38.486Z,3.03
2022-10-09T09:43:16.102Z,2.78
2022-10-09T09:45:44.870Z,2.60
2022-10-09T09:48:17.447Z,3.17
2022-10-09T09:50:52.947Z,2.40
2022-10-09T09:53:33.008Z,2.75
2022-10-09T09:56:01.104Z,2.33
2022-10-09T09:58:35.190Z,2.13
2022-10-09T10:01:06.251Z,2.10
2022-10-09T10:03:35.336Z,2.65
2022-10-09T10:06:03.587Z,2.00
2022-10-09T10:08:34.542Z,2.05
2022-10-09T10:11:06.243Z,2.72
2022-10-09T10:13:38.037Z,2.38
2022-10-09T10:16:08.579Z,1.48
2022-10-09T10:18:41.423Z,2.15
2022-10-09T10:21:14.259Z,1.67
2022-10-09T10:23:46.637Z,2.60
2022-10-09T10:26:24.206Z,1.63
2022-10-09T10:28:58.603Z,1.55
2022-10-09T10:31:46.934Z,1.42
2022-10-09T10:34:24.165Z,2.00
2022-10-09T10:37:02.512Z,1.83
2022-10-09T10:39:38.668Z,1.92
2022-10-09T10:42:16.090Z,1.50
2022-10-09T10:44:53.653Z,1.50
2022-10-09T10:47:25.450Z,1.50
2022-10-09T10:49:53.855Z,1.75
2022-10-09T10:52:35.189Z,3.83
2022-10-09T10:55:21.985Z,1.60
2022-10-09T10:57:56.615Z,1.58
2022-10-09T11:00:24.593Z,1.92
2022-10-09T11:03:25.005Z,1.67
2022-10-09T11:08:44.727Z,1.25
2022-10-09T11:11:22.837Z,1.20
2022-10-09T11:13:59.754Z,1.30
2022-10-09T11:16:39.509Z,1.75
2022-10-09T11:19:45.253Z,1.20
2022-10-09T11:22:30.008Z,1.45
2022-10-09T11:25:10.039Z,1.70
2022-10-09T11:27:48.384Z,1.70
2022-10-09T11:30:17.926Z,1.23
2022-10-09T11:32:56.654Z,1.42
2022-10-09T11:35:26.550Z,1.35
2022-10-09T11:38:01.111Z,1.13
2022-10-09T11:40:34.775Z,1.23
2022-10-09T11:43:18.637Z,1.30
2022-10-09T11:45:52.568Z,1.90
2022-10-09T11:48:30.768Z,1.15
2022-10-09T11:51:04.668Z,1.45
2022-10-09T11:53:36.934Z,1.10
2022-10-09T11:56:07.060Z,1.50
2022-10-09T11:58:36.914Z,1.30
2022-10-09T12:01:23.887Z,1.58
2022-10-09T12:04:02.898Z,1.95
2022-10-09T12:06:31.801Z,1.63
2022-10-09T12:09:01.989Z,1.50
2022-10-09T12:11:30.882Z,1.30
2022-10-09T12:14:02.632Z,1.40
2022-10-09T12:16:39.210Z,1.75
2022-10-09T12:19:16.621Z,1.27
2022-10-09T12:21:52.086Z,1.42
2022-10-09T12:24:24.232Z,1.38
2022-10-09T12:26:54.600Z,1.38
2022-10-09T12:32:02.869Z,1.17
2022-10-09T12:34:34.861Z,1.10
2022-10-09T12:37:12.651Z,1.67
2022-10-09T12:39:41.198Z,1.30
2022-10-09T12:42:16.377Z,1.70
2022-10-09T12:44:47.272Z,2.33
2022-10-09T12:47:20.317Z,1.50
2022-10-09T12:50:04.717Z,1.58
2022-10-09T12:52:33.719Z,1.73
2022-10-09T12:55:03.556Z,1.35
2022-10-09T12:57:31.599Z,1.88
2022-10-09T13:00:01.305Z,2.88
2022-10-09T13:02:29.301Z,3.17
2022-10-09T13:05:00.259Z,1.63
2022-10-09T13:07:30.276Z,1.75
2022-10-09T13:10:01.448Z,1.63
2022-10-09T13:12:31.987Z,1.30
2022-10-09T13:15:02.602Z,1.42
2022-10-09T13:17:33.794Z,1.50
2022-10-09T13:20:05.803Z,1.63
2022-10-09T13:22:35.952Z,1.15
2022-10-09T13:25:04.462Z,1.60
2022-10-09T13:27:35.955Z,1.30
2022-10-09T13:30:06.590Z,1.30
2022-10-09T13:32:34.643Z,1.02
2022-10-09T13:35:02.476Z,1.52
2022-10-09T13:37:30.378Z,1.40
2022-10-09T13:40:00.549Z,1.55
2022-10-09T13:42:31.489Z,1.83
2022-10-09T13:44:59.589Z,2.00
2022-10-09T13:47:29.297Z,2.35
2022-10-09T13:49:57.501Z,3.10
2022-10-09T13:52:25.428Z,2.38
2022-10-09T13:54:53.286Z,1.60
2022-10-09T13:57:21.184Z,0.93
2022-10-09T13:59:49.057Z,1.50
2022-10-09T14:02:17.065Z,1.00
2022-10-09T14:04:46.232Z,0.88
2022-10-09T14:07:14.111Z,1.92
2022-10-09T14:09:42.000Z,1.05
2022-10-09T14:12:09.988Z,1.35
2022-10-09T14:14:37.959Z,1.20
2022-10-09T14:17:05.811Z,1.20
2022-10-09T14:19:33.675Z,1.27
2022-10-09T14:22:03.043Z,1.30
2022-10-09T14:24:31.081Z,1.17
2022-10-09T14:26:58.986Z,1.48
2022-10-09T14:29:26.781Z,1.20
2022-10-09T14:31:54.657Z,1.27
2022-10-09T14:34:22.683Z,1.10
2022-10-09T14:36:50.774Z,1.10
2022-10-09T14:39:19.995Z,1.00
2022-10-09T14:41:47.960Z,1.20
2022-10-09T14:44:15.833Z,1.10
2022-10-09T14:46:43.741Z,1.10
2022-10-09T14:49:12.189Z,1.80
2022-10-09T14:51:41.505Z,1.10
2022-10-09T14:54:11.919Z,1.00
2022-10-09T14:56:41.556Z,1.15
2022-10-09T14:59:09.490Z,0.75
2022-10-09T15:01:37.705Z,1.13
2022-10-09T15:04:06.397Z,1.40
2022-10-09T15:06:34.969Z,1.20
2022-10-09T15:09:05.837Z,1.10
2022-10-09T15:11:35.357Z,1.10
2022-10-09T15:14:05.137Z,1.20
2022-10-09T15:16:33.186Z,1.13
2022-10-09T15:19:01.359Z,1.35
2022-10-09T15:21:30.766Z,1.27
2022-10-09T15:24:00.238Z,1.63
2022-10-09T15:26:29.680Z,1.50
2022-10-09T15:28:57.829Z,1.30
2022-10-09T15:31:28.927Z,1.33
2022-10-09T15:33:58.634Z,2.17
2022-10-09T15:36:26.670Z,2.05
2022-10-09T15:38:54.645Z,1.20
2022-10-09T15:41:24.166Z,1.30
2022-10-09T15:43:54.975Z,1.85
2022-10-09T15:46:24.063Z,1.20
2022-10-09T15:48:53.924Z,1.10
2022-10-09T15:51:21.958Z,1.17
2022-10-09T15:53:51.357Z,1.40
2022-10-09T15:56:21.386Z,1.40
2022-10-09T15:58:49.515Z,1.58
2022-10-09T16:01:18.604Z,1.20
2022-10-09T16:03:46.966Z,1.33
2022-10-09T16:06:18.378Z,1.00
2022-10-09T16:08:46.509Z,1.20
2022-10-09T16:11:17.936Z,0.90
2022-10-09T16:13:48.621Z,0.90
2022-10-09T16:16:18.209Z,1.00
2022-10-09T16:18:46.869Z,1.42
2022-10-09T16:21:18.007Z,3.60
2022-10-09T16:23:46.619Z,11.20
2022-10-09T16:26:16.879Z,6.35
2022-10-09T16:31:19.624Z,2.20
2022-10-09T16:33:47.712Z,2.95
2022-10-09T16:36:16.984Z,3.17
2022-10-09T16:38:45.212Z,2.10
2022-10-09T16:41:17.803Z,1.92
2022-10-09T16:43:46.318Z,2.50
2022-10-09T16:46:19.080Z,3.28
2022-10-09T16:48:47.808Z,3.60
2022-10-09T16:51:21.257Z,2.88
2022-10-09T16:53:50.555Z,11.07
2022-10-09T16:56:21.254Z,19.90
2022-10-09T16:58:49.553Z,31.67
2022-10-09T17:01:17.601Z,26.48
2022-10-09T17:03:46.812Z,32.03
2022-10-09T17:06:19.572Z,23.88
2022-10-09T17:08:48.298Z,16.40
2022-10-09T17:11:17.250Z,14.90
2022-10-09T17:13:45.893Z,17.42
2022-10-09T17:16:18.418Z,11.43
2022-10-09T17:18:47.223Z,9.00
2022-10-09T17:21:18.321Z,10.65
2022-10-09T17:23:47.472Z,8.40
2022-10-09T17:26:17.357Z,6.88
2022-10-09T17:28:46.394Z,7.43
2022-10-09T17:31:16.558Z,5.10
2022-10-09T17:33:46.284Z,4.85
2022-10-09T17:36:18.128Z,4.55
2022-10-09T17:38:46.948Z,4.22
2022-10-09T17:41:16.455Z,4.20
2022-10-09T17:43:44.823Z,4.80
2022-10-09T17:46:15.191Z,3.83
2022-10-09T17:51:18.206Z,3.30
2022-10-09T17:53:47.674Z,3.13
2022-10-09T17:56:15.743Z,3.20
2022-10-09T17:58:44.434Z,3.90
2022-10-09T18:01:14.139Z,3.80
2022-10-09T18:03:42.582Z,3.95
2022-10-09T18:06:14.664Z,4.57
2022-10-09T18:08:44.917Z,3.65
2022-10-09T18:11:14.780Z,3.92
2022-10-09T18:13:44.024Z,4.63
2022-10-09T18:16:14.082Z,4.10
2022-10-09T18:18:42.069Z,3.92
2022-10-09T18:21:12.438Z,3.70
2022-10-09T18:23:42.955Z,3.90
2022-10-09T18:26:14.601Z,3.72
2022-10-09T18:28:44.815Z,3.70
2022-10-09T18:31:18.909Z,3.20
2022-10-09T18:33:47.026Z,3.60
2022-10-09T18:36:19.577Z,3.63
2022-10-09T18:38:51.643Z,3.40
2022-10-09T18:41:20.645Z,3.58
2022-10-09T18:43:49.684Z,3.05
2022-10-09T18:46:20.469Z,3.25
2022-10-09T18:48:49.135Z,3.22
2022-10-09T18:51:19.381Z,3.17
2022-10-09T18:53:53.207Z,2.83
2022-10-09T18:56:22.849Z,2.72
2022-10-09T18:58:53.669Z,3.08
2022-10-09T19:01:21.755Z,2.28
2022-10-09T19:03:50.387Z,3.05
2022-10-09T19:06:19.178Z,2.83
2022-10-09T19:08:47.242Z,2.90
2022-10-09T19:11:16.772Z,3.30
2022-10-09T19:13:46.006Z,2.80
2022-10-09T19:16:13.998Z,2.65
2022-10-09T19:18:41.910Z,4.00
2022-10-09T19:21:14.077Z,5.30
2022-10-09T19:23:42.786Z,7.85
2022-10-09T19:26:13.522Z,5.93
2022-10-09T19:28:42.858Z,5.68
2022-10-09T19:31:11.771Z,5.50
2022-10-09T19:33:40.469Z,6.20
2022-10-09T19:36:10.729Z,6.70
2022-10-09T19:41:07.767Z,7.38
2022-10-09T19:43:35.670Z,7.73
2022-10-09T19:46:07.982Z,7.00
2022-10-09T19:48:36.632Z,7.15
2022-10-09T19:51:06.913Z,5.68
2022-10-09T19:53:34.897Z,5.63
2022-10-09T19:56:03.349Z,5.20
2022-10-09T19:58:31.407Z,6.13
2022-10-09T20:00:59.277Z,12.32
2022-10-09T20:03:28.541Z,6.65
2022-10-09T20:05:56.575Z,6.60
2022-10-09T20:08:24.530Z,11.07
2022-10-09T20:10:52.602Z,10.23
2022-10-09T20:13:20.622Z,8.57
2022-10-09T20:15:48.480Z,8.82
2022-10-09T20:18:16.430Z,8.32
2022-10-09T20:20:49.200Z,16.92
2022-10-09T20:23:17.014Z,12.45
2022-10-09T20:25:44.855Z,8.38
2022-10-09T20:28:13.213Z,7.05
2022-10-09T20:30:41.459Z,7.43
2022-10-09T20:33:09.784Z,5.32
2022-10-09T20:35:42.635Z,4.65
2022-10-09T20:38:12.063Z,5.43
2022-10-09T20:40:39.864Z,5.07
2022-10-09T20:43:07.778Z,4.07
2022-10-09T20:45:40.742Z,4.28
2022-10-09T20:48:09.289Z,6.25
2022-10-09T20:50:37.743Z,6.55
2022-10-09T20:53:06.775Z,5.20
2022-10-09T20:55:36.198Z,5.18
2022-10-09T20:58:04.515Z,5.77
2022-10-09T21:00:32.453Z,4.97
2022-10-09T21:03:00.395Z,5.05
2022-10-09T21:05:28.351Z,5.53
2022-10-09T21:07:56.149Z,4.30
2022-10-09T21:10:24.042Z,4.75
2022-10-09T21:12:53.460Z,4.43
2022-10-09T21:15:22.122Z,3.90
2022-10-09T21:17:49.931Z,3.60
2022-10-09T21:20:18.132Z,4.00
2022-10-09T21:22:45.978Z,4.03
2022-10-09T21:25:14.073Z,3.28
2022-10-09T21:27:42.051Z,3.03
2022-10-09T21:30:12.895Z,3.25
2022-10-09T21:32:40.918Z,2.85
2022-10-09T21:35:09.269Z,2.67
2022-10-09T21:37:37.648Z,2.97
2022-10-09T21:40:06.118Z,2.58
2022-10-09T21:42:34.058Z,2.38
2022-10-09T21:45:01.892Z,4.20
2022-10-09T21:47:31.188Z,3.25
2022-10-09T21:49:59.097Z,6.13
2022-10-09T21:52:26.961Z,4.35
2022-10-09T21:54:54.847Z,7.45
2022-10-09T21:57:22.780Z,3.97
2022-10-09T21:59:50.698Z,5.38
2022-10-09T22:02:18.627Z,4.93
2022-10-09T22:04:48.080Z,3.95
2022-10-09T22:07:15.908Z,3.80
2022-10-09T22:09:43.959Z,3.00
2022-10-09T22:12:11.856Z,3.20
2022-10-09T22:14:39.794Z,2.80
2022-10-09T22:17:07.648Z,2.67
2022-10-09T22:19:35.593Z,2.83
2022-10-09T22:22:04.886Z,4.47
2022-10-09T22:24:33.058Z,4.97
2022-10-09T22:27:00.908Z,5.13
2022-10-09T22:29:28.913Z,6.30
2022-10-09T22:31:56.925Z,5.18
2022-10-09T22:34:24.705Z,6.07
2022-10-09T22:36:52.579Z,6.15
2022-10-09T22:39:21.752Z,6.05
2022-10-09T22:41:49.570Z,6.78
2022-10-09T22:44:17.391Z,4.43
2022-10-09T22:46:45.778Z,3.65
2022-10-09T22:49:15.119Z,3.70
2022-10-09T22:51:43.084Z,3.40
2022-10-09T22:54:12.820Z,3.38
2022-10-09T22:56:46.887Z,3.15
2022-10-09T22:59:16.717Z,3.00
2022-10-09T23:01:48.413Z,2.60
2022-10-09T23:04:18.116Z,3.08
2022-10-09T23:06:47.284Z,2.85
2022-10-09T23:09:16.338Z,2.78
2022-10-09T23:11:46.272Z,2.35
2022-10-09T23:14:14.571Z,3.03
2022-10-09T23:16:43.003Z,2.67
2022-10-09T23:19:11.821Z,2.70
2022-10-09T23:21:41.491Z,2.75
2022-10-09T23:24:11.519Z,3.65
2022-10-09T23:26:39.491Z,3.22
2022-10-09T23:29:13.314Z,2.50
2022-10-09T23:31:41.179Z,2.22
2022-10-09T23:34:09.015Z,2.45
2022-10-09T23:36:36.886Z,3.20
2022-10-09T23:39:06.493Z,2.70
2022-10-09T23:41:34.347Z,2.17
2022-10-09T23:44:02.332Z,2.42
2022-10-09T23:46:33.925Z,2.33
2022-10-09T23:49:02.179Z,2.90
2022-10-09T23:51:30.709Z,4.03
2022-10-09T23:53:58.908Z,4.05
2022-10-09T23:56:28.862Z,6.35
2022-10-09T23:58:57.928Z,6.78
